createdAt,value
2023-01-13T00:00:36.455Z,100933.31
2023-01-13T00:03:40.723Z,100940.31
2023-01-13T00:06:42.995Z,100933.59
2023-01-13T00:09:45.513Z,100934.66
2023-01-13T00:12:47.667Z,100938.25
2023-01-13T00:16:01.778Z,100933.06
2023-01-13T00:19:03.888Z,100934.78
2023-01-13T00:22:06.768Z,100940.06
2023-01-13T00:25:09.468Z,100926.91
2023-01-13T00:28:12.067Z,100923.38
2023-01-13T00:31:17.317Z,100930.38
2023-01-13T00:34:20.070Z,100931.97
2023-01-13T00:37:22.460Z,100924.81
2023-01-13T00:40:24.966Z,100917.94
2023-01-13T00:43:29.505Z,100915.59
2023-01-13T00:46:32.324Z,100922.38
2023-01-13T00:49:34.619Z,100929.59
2023-01-13T00:52:37.135Z,100926.47
2023-01-13T00:55:39.767Z,100916.16
2023-01-13T00:58:44.256Z,100921.37
2023-01-13T01:01:46.587Z,100917.84
2023-01-13T01:04:49.272Z,100923.00
2023-01-13T01:07:51.602Z,100912.59
2023-01-13T01:11:03.322Z,100912.56
2023-01-13T01:14:05.626Z,100913.53
2023-01-13T01:17:08.216Z,100904.59
2023-01-13T01:20:11.088Z,100902.63
2023-01-13T01:23:13.623Z,100893.19
2023-01-13T01:26:24.735Z,100896.62
2023-01-13T01:29:27.470Z,100894.00
2023-01-13T01:32:29.690Z,100901.09
2023-01-13T01:35:32.245Z,100898.50
2023-01-13T01:38:34.394Z,100901.16
2023-01-13T01:41:37.347Z,100902.44
2023-01-13T01:44:42.374Z,100892.16
2023-01-13T01:47:47.623Z,100888.59
2023-01-13T01:50:49.967Z,100891.13
2023-01-13T01:53:55.234Z,100882.44
2023-01-13T01:56:58.076Z,100881.09
2023-01-13T02:00:02.375Z,100878.13
2023-01-13T02:03:16.153Z,100876.47
2023-01-13T02:06:19.060Z,100866.28
2023-01-13T02:09:21.237Z,100870.72
2023-01-13T02:12:32.500Z,100868.22
2023-01-13T02:16:05.956Z,100871.69
2023-01-13T02:19:19.418Z,100866.16
2023-01-13T02:23:03.371Z,100862.47
2023-01-13T02:26:33.166Z,100863.41
2023-01-13T02:30:50.963Z,100863.94
2023-01-13T02:34:13.670Z,100861.31
2023-01-13T02:37:28.797Z,100852.56
2023-01-13T02:40:31.482Z,100850.03
2023-01-13T02:43:57.682Z,100854.13
2023-01-13T02:47:22.621Z,100861.84
2023-01-13T02:50:32.311Z,100857.34
2023-01-13T02:53:41.749Z,100852.97
2023-01-13T02:56:48.400Z,100846.56
2023-01-13T02:59:55.137Z,100844.00
2023-01-13T03:02:57.771Z,100846.22
2023-01-13T03:06:09.084Z,100839.25
2023-01-13T03:09:39.567Z,100836.13
2023-01-13T03:13:01.012Z,100828.72
2023-01-13T03:16:23.421Z,100834.09
2023-01-13T03:19:46.887Z,100829.53
2023-01-13T03:22:55.304Z,100825.59
2023-01-13T03:26:10.835Z,100832.78
2023-01-13T03:29:25.627Z,100823.41
2023-01-13T03:32:36.702Z,100829.50
2023-01-13T03:35:44.962Z,100828.47
2023-01-13T03:38:53.935Z,100832.25
2023-01-13T03:42:02.259Z,100837.78
2023-01-13T03:45:17.842Z,100819.78
2023-01-13T03:48:22.873Z,100820.84
2023-01-13T03:51:31.356Z,100821.53
2023-01-13T03:54:39.346Z,100813.88
2023-01-13T03:57:50.050Z,100812.94
2023-01-13T04:01:04.081Z,100817.25
2023-01-13T04:04:14.045Z,100811.94
2023-01-13T04:07:42.696Z,100826.63
2023-01-13T04:10:53.641Z,100823.84
2023-01-13T04:13:56.728Z,100816.87
2023-01-13T04:16:59.331Z,100817.44
2023-01-13T04:20:01.622Z,100818.12
2023-01-13T04:23:04.294Z,100817.88
2023-01-13T04:26:06.608Z,100821.22
2023-01-13T04:29:09.187Z,100815.25
2023-01-13T04:32:11.427Z,100823.72
2023-01-13T04:35:14.115Z,100821.84
2023-01-13T04:38:19.992Z,100826.38
2023-01-13T04:41:22.644Z,100836.69
2023-01-13T04:44:26.092Z,100831.47
2023-01-13T04:47:28.692Z,100827.88
2023-01-13T04:50:31.220Z,100829.53
2023-01-13T04:53:33.885Z,100825.69
2023-01-13T04:56:39.551Z,100814.88
2023-01-13T04:59:46.212Z,100825.91
2023-01-13T05:02:52.163Z,100824.47
2023-01-13T05:05:54.691Z,100823.91
2023-01-13T05:08:57.747Z,100825.94
2023-01-13T05:12:19.107Z,100828.12
2023-01-13T05:15:39.888Z,100831.50
2023-01-13T05:18:42.592Z,100834.25
2023-01-13T05:22:03.265Z,100840.72
2023-01-13T05:25:24.678Z,100837.06
2023-01-13T05:28:31.595Z,100839.81
2023-01-13T05:31:34.305Z,100853.31
2023-01-13T05:34:36.998Z,100852.72
2023-01-13T05:37:39.686Z,100851.91
2023-01-13T05:41:01.132Z,100846.16
2023-01-13T05:44:04.268Z,100844.94
2023-01-13T05:47:06.813Z,100845.03
2023-01-13T05:50:10.450Z,100843.72
2023-01-13T05:53:13.463Z,100839.56
2023-01-13T05:56:17.939Z,100848.19
2023-01-13T05:59:19.987Z,100842.97
2023-01-13T06:02:26.889Z,100842.00
2023-01-13T06:05:30.783Z,100853.44
2023-01-13T06:08:33.034Z,100851.59
2023-01-13T06:11:36.149Z,100845.56
2023-01-13T06:14:41.276Z,100846.25
2023-01-13T06:17:44.172Z,100843.63
2023-01-13T06:20:47.207Z,100848.09
2023-01-13T06:23:49.799Z,100855.03
2023-01-13T06:26:52.166Z,100852.28
2023-01-13T06:29:56.677Z,100851.06
2023-01-13T06:33:01.903Z,100857.94
2023-01-13T06:36:13.828Z,100850.44
2023-01-13T06:39:20.217Z,100856.59
2023-01-13T06:42:41.542Z,100853.31
2023-01-13T06:45:51.123Z,100865.66
2023-01-13T06:48:53.848Z,100862.38
2023-01-13T06:51:56.084Z,100864.22
2023-01-13T06:54:58.638Z,100871.81
2023-01-13T06:58:02.553Z,100860.56
2023-01-13T07:01:06.760Z,100871.06
2023-01-13T07:04:09.088Z,100870.94
2023-01-13T07:07:12.456Z,100869.84
2023-01-13T07:10:22.089Z,100877.72
2023-01-13T07:13:43.745Z,100875.50
2023-01-13T07:16:46.859Z,100878.00
2023-01-13T07:19:49.557Z,100877.94
2023-01-13T07:22:55.866Z,100865.28
2023-01-13T07:25:59.568Z,100867.31
2023-01-13T07:29:01.859Z,100863.44
2023-01-13T07:32:05.541Z,100865.72
2023-01-13T07:35:08.087Z,100869.03
2023-01-13T07:38:12.245Z,100862.84
2023-01-13T07:41:33.654Z,100870.66
2023-01-13T07:44:36.489Z,100871.50
2023-01-13T07:47:39.131Z,100871.69
2023-01-13T07:50:44.056Z,100882.97
2023-01-13T07:53:46.604Z,100884.75
2023-01-13T07:56:49.205Z,100883.31
2023-01-13T07:59:51.424Z,100880.28
2023-01-13T08:02:53.971Z,100899.13
2023-01-13T08:05:56.572Z,100897.69
2023-01-13T08:08:58.935Z,100903.62
2023-01-13T08:12:21.116Z,100897.38
2023-01-13T08:15:23.852Z,100909.25
2023-01-13T08:18:26.472Z,100907.19
2023-01-13T08:21:28.862Z,100909.19
2023-01-13T08:24:31.538Z,100910.19
2023-01-13T08:27:34.125Z,100909.84
2023-01-13T08:30:36.887Z,100915.41
2023-01-13T08:33:40.067Z,100911.13
2023-01-13T08:36:42.673Z,100913.31
2023-01-13T08:39:44.946Z,100926.22
2023-01-13T08:42:48.727Z,100921.22
2023-01-13T08:46:22.447Z,100921.19
2023-01-13T08:49:25.913Z,100924.91
2023-01-13T08:52:30.630Z,100922.38
2023-01-13T08:55:33.344Z,100935.16
2023-01-13T08:58:35.734Z,100933.34
2023-01-13T09:01:39.435Z,100932.69
2023-01-13T09:04:42.124Z,100933.09
2023-01-13T09:07:45.049Z,100929.41
2023-01-13T09:10:47.518Z,100925.66
2023-01-13T09:13:50.533Z,100929.19
2023-01-13T09:16:52.820Z,100935.53
2023-01-13T09:19:55.869Z,100929.19
2023-01-13T09:22:58.133Z,100933.66
2023-01-13T09:26:00.829Z,100935.37
2023-01-13T09:29:03.589Z,100930.44
2023-01-13T09:32:07.142Z,100929.03
2023-01-13T09:35:09.778Z,100932.22
2023-01-13T09:38:12.759Z,100931.19
2023-01-13T09:41:39.699Z,100922.28
2023-01-13T09:45:01.698Z,100925.75
2023-01-13T09:48:22.545Z,100912.22
2023-01-13T09:51:34.591Z,100918.66
2023-01-13T09:54:44.326Z,100915.94
2023-01-13T09:57:47.105Z,100910.41
2023-01-13T10:00:55.522Z,100918.22
2023-01-13T10:04:03.866Z,100917.50
2023-01-13T10:07:13.803Z,100913.62
2023-01-13T10:10:32.215Z,100906.03
2023-01-13T10:13:35.328Z,100904.22
2023-01-13T10:16:46.070Z,100908.81
2023-01-13T10:19:50.566Z,100907.78
2023-01-13T10:23:34.544Z,100909.41
2023-01-13T10:27:16.281Z,100903.03
2023-01-13T10:30:31.684Z,100908.22
2023-01-13T10:33:34.120Z,100901.94
2023-01-13T10:36:36.705Z,100919.19
2023-01-13T10:39:47.163Z,100908.97
2023-01-13T10:43:05.626Z,100911.69
2023-01-13T10:46:13.346Z,100900.53
2023-01-13T10:49:36.516Z,100893.41
2023-01-13T10:52:43.401Z,100886.00
2023-01-13T10:56:01.990Z,100887.44
2023-01-13T10:59:18.369Z,100879.91
2023-01-13T11:02:30.677Z,100866.22
2023-01-13T11:05:33.012Z,100861.72
2023-01-13T11:08:45.244Z,100860.37
2023-01-13T11:11:50.193Z,100863.47
2023-01-13T11:14:53.141Z,100849.69
2023-01-13T11:18:09.409Z,100850.97
2023-01-13T11:21:22.515Z,100836.00
2023-01-13T11:24:51.226Z,100844.25
2023-01-13T11:28:02.510Z,100840.72
2023-01-13T11:31:16.968Z,100833.66
2023-01-13T11:34:25.828Z,100829.97
2023-01-13T11:37:33.746Z,100824.31
2023-01-13T11:40:46.036Z,100831.38
2023-01-13T11:43:55.727Z,100824.66
2023-01-13T11:46:58.612Z,100826.19
2023-01-13T11:50:01.687Z,100823.53
2023-01-13T11:53:08.776Z,100825.03
2023-01-13T11:56:27.613Z,100817.59
2023-01-13T12:00:15.316Z,100808.50
2023-01-13T12:03:31.187Z,100792.78
2023-01-13T12:06:40.609Z,100792.16
2023-01-13T12:09:56.004Z,100793.81
2023-01-13T12:13:33.777Z,100770.00
2023-01-13T12:16:46.741Z,100767.84
2023-01-13T12:19:51.149Z,100753.59
2023-01-13T12:22:58.305Z,100747.56
2023-01-13T12:26:12.327Z,100733.44
2023-01-13T12:29:18.965Z,100755.41
2023-01-13T12:32:44.816Z,100754.91
2023-01-13T12:36:15.885Z,100747.97
2023-01-13T12:39:20.971Z,100746.88
2023-01-13T12:43:25.994Z,100762.22
2023-01-13T12:46:28.180Z,100763.16
2023-01-13T12:49:36.261Z,100758.94
2023-01-13T12:52:45.436Z,100766.31
2023-01-13T12:55:52.219Z,100755.97
2023-01-13T12:59:14.366Z,100748.13
2023-01-13T13:02:27.547Z,100742.03
2023-01-13T13:05:39.040Z,100752.19
2023-01-13T13:09:03.169Z,100745.09
2023-01-13T13:12:49.413Z,100748.16
2023-01-13T13:15:52.148Z,100753.88
2023-01-13T13:19:21.243Z,100753.66
2023-01-13T13:22:26.714Z,100761.59
2023-01-13T13:25:32.086Z,100773.78
2023-01-13T13:28:41.186Z,100770.84
2023-01-13T13:32:07.854Z,100767.38
2023-01-13T13:35:32.532Z,100765.78
2023-01-13T13:39:25.782Z,100761.34
2023-01-13T13:42:55.563Z,100762.13
2023-01-13T13:46:16.575Z,100753.47
2023-01-13T13:49:36.447Z,100752.19
2023-01-13T13:52:43.429Z,100763.84
2023-01-13T13:55:59.537Z,100763.91
2023-01-13T13:59:02.046Z,100768.72
2023-01-13T14:02:18.553Z,100774.62
2023-01-13T14:05:24.890Z,100776.75
2023-01-13T14:08:29.638Z,100782.34
2023-01-13T14:11:33.667Z,100780.19
2023-01-13T14:14:36.137Z,100771.88
2023-01-13T14:17:38.624Z,100782.09
2023-01-13T14:20:42.092Z,100784.19
2023-01-13T14:23:56.567Z,100785.22
2023-01-13T14:27:16.929Z,100785.66
2023-01-13T14:30:19.726Z,100784.06
2023-01-13T14:33:27.295Z,100779.34
2023-01-13T14:36:32.853Z,100781.00
2023-01-13T14:39:39.557Z,100781.16
2023-01-13T14:42:42.301Z,100778.09
2023-01-13T14:45:55.156Z,100779.63
2023-01-13T14:49:01.415Z,100789.84
2023-01-13T14:52:20.571Z,100792.47
2023-01-13T14:55:40.309Z,100787.94
2023-01-13T14:58:42.819Z,100781.72
2023-01-13T15:01:45.651Z,100783.75
2023-01-13T15:04:50.433Z,100782.56
2023-01-13T15:07:54.667Z,100786.13
2023-01-13T15:11:03.404Z,100793.66
2023-01-13T15:14:10.702Z,100790.56
2023-01-13T15:17:16.571Z,100784.31
2023-01-13T15:20:22.681Z,100777.44
2023-01-13T15:23:25.011Z,100776.22
2023-01-13T15:26:29.935Z,100773.84
2023-01-13T15:29:32.859Z,100781.06
2023-01-13T15:32:35.321Z,100779.00
2023-01-13T15:35:39.222Z,100775.91
2023-01-13T15:38:41.732Z,100788.22
2023-01-13T15:42:02.562Z,100782.69
2023-01-13T15:45:24.036Z,100781.75
2023-01-13T15:48:28.115Z,100781.94
2023-01-13T15:51:30.611Z,100786.03
2023-01-13T15:54:32.855Z,100782.22
2023-01-13T15:57:37.791Z,100792.31
2023-01-13T16:00:42.257Z,100796.03
2023-01-13T16:03:45.174Z,100796.25
2023-01-13T16:06:47.640Z,100802.50
2023-01-13T16:09:50.372Z,100794.75
2023-01-13T16:12:53.251Z,100801.03
2023-01-13T16:15:56.808Z,100796.53
2023-01-13T16:18:59.237Z,100799.31
2023-01-13T16:22:01.762Z,100792.38
2023-01-13T16:25:04.368Z,100796.44
2023-01-13T16:28:06.873Z,100798.88
2023-01-13T16:31:24.229Z,100787.59
2023-01-13T16:34:26.936Z,100792.53
2023-01-13T16:37:29.719Z,100796.25
2023-01-13T16:40:36.600Z,100787.28
2023-01-13T16:43:39.415Z,100784.53
2023-01-13T16:46:44.552Z,100786.25
2023-01-13T16:49:47.227Z,100788.06
2023-01-13T16:52:49.956Z,100788.06
2023-01-13T16:55:52.756Z,100779.47
2023-01-13T16:58:58.736Z,100784.16
2023-01-13T17:02:02.061Z,100790.13
2023-01-13T17:05:05.881Z,100788.66
2023-01-13T17:08:19.034Z,100786.25
2023-01-13T17:11:22.095Z,100786.44
2023-01-13T17:14:25.288Z,100773.38
2023-01-13T17:17:28.207Z,100777.66
2023-01-13T17:20:30.600Z,100774.97
2023-01-13T17:23:33.454Z,100782.09
2023-01-13T17:26:38.249Z,100784.00
2023-01-13T17:29:40.911Z,100782.87
2023-01-13T17:32:43.087Z,100787.09
2023-01-13T17:35:46.684Z,100786.19
2023-01-13T17:38:49.221Z,100792.47
2023-01-13T17:41:55.980Z,100788.75
2023-01-13T17:44:59.403Z,100794.28
2023-01-13T17:48:02.047Z,100810.31
2023-01-13T17:51:08.782Z,100799.16
2023-01-13T17:54:12.447Z,100796.34
2023-01-13T17:57:14.786Z,100800.03
2023-01-13T18:00:18.667Z,100797.47
2023-01-13T18:03:21.218Z,100801.00
2023-01-13T18:06:23.648Z,100807.97
2023-01-13T18:09:26.749Z,100806.63
2023-01-13T18:12:29.330Z,100804.91
2023-01-13T18:15:32.481Z,100808.94
2023-01-13T18:18:34.766Z,100805.63
2023-01-13T18:21:56.333Z,100818.56
2023-01-13T18:25:17.737Z,100825.47
2023-01-13T18:28:20.512Z,100829.47
2023-01-13T18:31:22.840Z,100829.06
2023-01-13T18:34:25.485Z,100815.16
2023-01-13T18:37:27.811Z,100817.66
2023-01-13T18:40:30.408Z,100819.44
2023-01-13T18:43:33.343Z,100821.13
2023-01-13T18:46:35.921Z,100823.97
2023-01-13T18:49:38.218Z,100825.22
2023-01-13T18:52:41.316Z,100826.31
2023-01-13T18:55:44.006Z,100830.91
2023-01-13T18:58:52.054Z,100831.13
2023-01-13T19:01:55.072Z,100828.69
2023-01-13T19:04:57.906Z,100835.00
2023-01-13T19:08:00.607Z,100836.44
2023-01-13T19:11:07.176Z,100838.41
2023-01-13T19:14:09.732Z,100832.28
2023-01-13T19:17:15.456Z,100831.31
2023-01-13T19:20:17.966Z,100834.00
2023-01-13T19:23:20.962Z,100845.28
2023-01-13T19:26:23.207Z,100845.41
2023-01-13T19:29:26.122Z,100841.03
2023-01-13T19:32:30.558Z,100854.88
2023-01-13T19:35:33.531Z,100854.09
2023-01-13T19:38:37.671Z,100867.03
2023-01-13T19:41:58.974Z,100864.47
2023-01-13T19:45:19.876Z,100877.25
2023-01-13T19:48:22.357Z,100873.25
2023-01-13T19:51:25.011Z,100869.66
2023-01-13T19:54:27.717Z,100877.59
2023-01-13T19:57:30.750Z,100876.16
2023-01-13T20:00:34.847Z,100899.56
2023-01-13T20:03:38.040Z,100918.94
2023-01-13T20:06:41.045Z,100921.63
2023-01-13T20:09:44.813Z,100929.25
2023-01-13T20:12:47.175Z,100921.50
2023-01-13T20:15:49.765Z,100924.66
2023-01-13T20:18:52.081Z,100913.84
2023-01-13T20:21:54.710Z,100908.50
2023-01-13T20:24:57.255Z,100909.59
2023-01-13T20:28:01.978Z,100911.47
2023-01-13T20:31:12.059Z,100899.69
2023-01-13T20:34:15.425Z,100879.59
2023-01-13T20:37:17.686Z,100893.97
2023-01-13T20:40:20.726Z,100899.75
2023-01-13T20:43:23.020Z,100885.59
2023-01-13T20:46:25.764Z,100883.03
2023-01-13T20:49:28.267Z,100880.34
2023-01-13T20:52:30.917Z,100880.22
2023-01-13T20:55:33.067Z,100891.03
2023-01-13T20:58:37.966Z,100891.37
2023-01-13T21:01:40.334Z,100898.41
2023-01-13T21:04:43.293Z,100896.88
2023-01-13T21:07:45.542Z,100904.44
2023-01-13T21:10:47.976Z,100907.44
2023-01-13T21:14:09.009Z,100911.09
2023-01-13T21:17:33.361Z,100897.34
2023-01-13T21:20:37.142Z,100889.50
2023-01-13T21:23:46.743Z,100877.97
2023-01-13T21:26:59.102Z,100879.84
2023-01-13T21:30:01.654Z,100879.28
2023-01-13T21:33:06.053Z,100872.78
2023-01-13T21:36:12.734Z,100870.03
2023-01-13T21:39:16.083Z,100868.81
2023-01-13T21:42:37.336Z,100870.09
2023-01-13T21:45:58.148Z,100884.44
2023-01-13T21:49:01.174Z,100876.69
2023-01-13T21:52:03.420Z,100875.16
2023-01-13T21:55:21.560Z,100878.63
2023-01-13T21:58:24.111Z,100885.66
2023-01-13T22:01:26.786Z,100871.88
2023-01-13T22:04:29.435Z,100863.63
2023-01-13T22:07:33.328Z,100871.56
2023-01-13T22:10:35.996Z,100871.37
2023-01-13T22:14:17.236Z,100877.28
2023-01-13T22:17:21.491Z,100878.94
2023-01-13T22:20:23.796Z,100910.47
2023-01-13T22:23:26.501Z,100916.62
2023-01-13T22:26:28.786Z,100922.91
2023-01-13T22:29:31.204Z,100945.25
2023-01-13T22:32:36.380Z,100948.63
2023-01-13T22:35:38.932Z,100934.66
2023-01-13T22:38:41.187Z,100947.41
2023-01-13T22:41:43.807Z,100952.78
2023-01-13T22:44:46.039Z,100945.50
2023-01-13T22:47:49.761Z,100962.34
2023-01-13T22:50:52.341Z,100972.91
2023-01-13T22:53:54.922Z,100970.34
2023-01-13T22:56:57.169Z,100970.53
2023-01-13T22:59:59.637Z,100967.41
2023-01-13T23:03:01.838Z,100971.12
2023-01-13T23:06:05.282Z,100964.00
2023-01-13T23:09:08.079Z,100958.34
2023-01-13T23:12:10.597Z,100948.13
2023-01-13T23:15:12.833Z,100945.69
2023-01-13T23:18:15.302Z,100931.34
2023-01-13T23:21:23.808Z,100925.13
2023-01-13T23:24:27.923Z,100916.84
2023-01-13T23:27:30.283Z,100891.88
2023-01-13T23:30:33.036Z,100890.34
2023-01-13T23:33:37.535Z,100895.84
2023-01-13T23:36:41.709Z,100896.50
2023-01-13T23:39:44.123Z,100895.72
2023-01-13T23:42:46.721Z,100886.06
2023-01-13T23:45:49.489Z,100885.91
2023-01-13T23:48:52.356Z,100892.13
2023-01-13T23:51:54.722Z,100901.69
2023-01-13T23:54:59.087Z,100891.81
2023-01-13T23:58:01.555Z,100889.97
